sensor_id;sensor_type;location;lat;lon;timestamp;temperature;humidity
26230;DHT22;13960;50.860;4.352;2022-10-31T00:02:15;16.60;99.90
26230;DHT22;13960;50.860;4.352;2022-10-31T00:04:40;16.60;99.90
26230;DHT22;13960;50.860;4.352;2022-10-31T00:07:06;16.80;99.90
26230;DHT22;13960;50.860;4.352;2022-10-31T00:09:31;16.80;99.90
26230;DHT22;13960;50.860;4.352;2022-10-31T00:11:57;17.00;99.90
26230;DHT22;13960;50.860;4.352;2022-10-31T00:14:22;17.10;99.90
26230;DHT22;13960;50.860;4.352;2022-10-31T00:16:48;17.10;99.90
26230;DHT22;13960;50.860;4.352;2022-10-31T00:19:13;17.10;99.90
26230;DHT22;13960;50.860;4.352;2022-10-31T00:21:39;17.00;99.90
26230;DHT22;13960;50.860;4.352;2022-10-31T00:24:04;17.00;99.90
26230;DHT22;13960;50.860;4.352;2022-10-31T00:26:30;17.00;99.90
26230;DHT22;13960;50.860;4.352;2022-10-31T00:28:56;17.10;99.90
26230;DHT22;13960;50.860;4.352;2022-10-31T00:31:22;16.90;99.90
26230;DHT22;13960;50.860;4.352;2022-10-31T00:33:47;16.80;99.90
26230;DHT22;13960;50.860;4.352;2022-10-31T00:36:14;16.90;99.90
26230;DHT22;13960;50.860;4.352;2022-10-31T00:38:40;16.80;99.90
26230;DHT22;13960;50.860;4.352;2022-10-31T00:41:06;16.90;99.90
26230;DHT22;13960;50.860;4.352;2022-10-31T00:43:31;16.70;99.90
26230;DHT22;13960;50.860;4.352;2022-10-31T00:45:57;16.70;99.90
26230;DHT22;13960;50.860;4.352;2022-10-31T00:48:22;16.90;99.90
26230;DHT22;13960;50.860;4.352;2022-10-31T00:50:48;17.00;99.90
26230;DHT22;13960;50.860;4.352;2022-10-31T00:53:13;16.70;99.90
26230;DHT22;13960;50.860;4.352;2022-10-31T00:55:39;16.90;99.90
26230;DHT22;13960;50.860;4.352;2022-10-31T00:58:04;17.00;99.90
26230;DHT22;13960;50.860;4.352;2022-10-31T01:00:30;17.20;99.90
26230;DHT22;13960;50.860;4.352;2022-10-31T01:02:55;17.30;99.90
26230;DHT22;13960;50.860;4.352;2022-10-31T01:05:21;17.20;99.90
26230;DHT22;13960;50.860;4.352;2022-10-31T01:07:46;17.00;99.90
26230;DHT22;13960;50.860;4.352;2022-10-31T01:10:12;17.00;99.90
26230;DHT22;13960;50.860;4.352;2022-10-31T01:12:38;17.00;99.90
26230;DHT22;13960;50.860;4.352;2022-10-31T01:15:04;17.00;99.90
26230;DHT22;13960;50.860;4.352;2022-10-31T01:17:30;16.90;99.90
26230;DHT22;13960;50.860;4.352;2022-10-31T01:19:55;16.70;99.90
26230;DHT22;13960;50.860;4.352;2022-10-31T01:22:20;16.60;99.90
26230;DHT22;13960;50.860;4.352;2022-10-31T01:24:46;16.50;99.90
26230;DHT22;13960;50.860;4.352;2022-10-31T01:27:11;16.40;99.90
26230;DHT22;13960;50.860;4.352;2022-10-31T01:29:37;16.30;99.90
26230;DHT22;13960;50.860;4.352;2022-10-31T01:32:02;16.60;99.90
26230;DHT22;13960;50.860;4.352;2022-10-31T01:34:28;16.80;99.90
26230;DHT22;13960;50.860;4.352;2022-10-31T01:36:53;16.80;99.90
26230;DHT22;13960;50.860;4.352;2022-10-31T01:39:19;17.00;99.90
26230;DHT22;13960;50.860;4.352;2022-10-31T01:41:46;17.00;99.90
26230;DHT22;13960;50.860;4.352;2022-10-31T01:46:44;16.80;99.90
26230;DHT22;13960;50.860;4.352;2022-10-31T01:49:45;16.70;99.90
26230;DHT22;13960;50.860;4.352;2022-10-31T01:52:07;16.70;99.90
26230;DHT22;13960;50.860;4.352;2022-10-31T01:54:39;16.70;99.90
26230;DHT22;13960;50.860;4.352;2022-10-31T01:57:05;16.80;99.90
26230;DHT22;13960;50.860;4.352;2022-10-31T01:59:32;16.80;99.90
26230;DHT22;13960;50.860;4.352;2022-10-31T02:01:59;16.90;99.90
26230;DHT22;13960;50.860;4.352;2022-10-31T02:04:24;17.10;99.90
26230;DHT22;13960;50.860;4.352;2022-10-31T02:06:54;17.10;99.90
26230;DHT22;13960;50.860;4.352;2022-10-31T02:09:20;16.90;99.90
26230;DHT22;13960;50.860;4.352;2022-10-31T02:11:49;16.80;99.90
26230;DHT22;13960;50.860;4.352;2022-10-31T02:14:16;16.70;99.90
26230;DHT22;13960;50.860;4.352;2022-10-31T02:16:41;16.60;99.90
26230;DHT22;13960;50.860;4.352;2022-10-31T02:19:07;16.60;99.90
26230;DHT22;13960;50.860;4.352;2022-10-31T02:21:53;16.70;99.90
26230;DHT22;13960;50.860;4.352;2022-10-31T02:27:07;16.60;99.90
26230;DHT22;13960;50.860;4.352;2022-10-31T02:29:54;16.70;99.90
26230;DHT22;13960;50.860;4.352;2022-10-31T02:32:38;16.80;99.90
26230;DHT22;13960;50.860;4.352;2022-10-31T02:38:13;16.70;99.90
26230;DHT22;13960;50.860;4.352;2022-10-31T02:40:39;16.70;99.90
26230;DHT22;13960;50.860;4.352;2022-10-31T02:43:12;16.40;99.90
26230;DHT22;13960;50.860;4.352;2022-10-31T02:48:10;16.30;99.90
26230;DHT22;13960;50.860;4.352;2022-10-31T02:50:39;16.20;99.90
26230;DHT22;13960;50.860;4.352;2022-10-31T02:53:06;16.10;99.90
26230;DHT22;13960;50.860;4.352;2022-10-31T02:58:01;16.00;99.90
26230;DHT22;13960;50.860;4.352;2022-10-31T03:00:29;15.90;99.90
26230;DHT22;13960;50.860;4.352;2022-10-31T03:10:47;16.30;99.90
26230;DHT22;13960;50.860;4.352;2022-10-31T03:15:46;16.30;99.90
26230;DHT22;13960;50.860;4.352;2022-10-31T03:18:27;16.10;99.90
26230;DHT22;13960;50.860;4.352;2022-10-31T03:20:55;16.10;99.90
26230;DHT22;13960;50.860;4.352;2022-10-31T03:23:22;16.10;99.90
26230;DHT22;13960;50.860;4.352;2022-10-31T03:25:48;16.00;99.90
26230;DHT22;13960;50.860;4.352;2022-10-31T03:28:15;16.10;99.90
26230;DHT22;13960;50.860;4.352;2022-10-31T03:30:43;16.30;99.90
26230;DHT22;13960;50.860;4.352;2022-10-31T03:33:10;16.40;99.90
26230;DHT22;13960;50.860;4.352;2022-10-31T03:35:36;16.40;99.90
26230;DHT22;13960;50.860;4.352;2022-10-31T03:38:03;16.50;99.90
26230;DHT22;13960;50.860;4.352;2022-10-31T03:40:28;16.50;99.90
26230;DHT22;13960;50.860;4.352;2022-10-31T03:42:57;16.50;99.90
26230;DHT22;13960;50.860;4.352;2022-10-31T03:45:25;16.50;99.90
26230;DHT22;13960;50.860;4.352;2022-10-31T03:47:52;16.60;99.90
26230;DHT22;13960;50.860;4.352;2022-10-31T03:50:18;16.60;99.90
26230;DHT22;13960;50.860;4.352;2022-10-31T03:55:11;16.40;99.90
26230;DHT22;13960;50.860;4.352;2022-10-31T04:00:08;16.30;99.90
26230;DHT22;13960;50.860;4.352;2022-10-31T04:02:35;16.30;99.90
26230;DHT22;13960;50.860;4.352;2022-10-31T04:05:04;16.40;99.90
26230;DHT22;13960;50.860;4.352;2022-10-31T04:07:31;16.50;99.90
26230;DHT22;13960;50.860;4.352;2022-10-31T04:09:58;16.60;99.90
26230;DHT22;13960;50.860;4.352;2022-10-31T04:12:25;16.70;99.90
26230;DHT22;13960;50.860;4.352;2022-10-31T04:14:51;16.70;99.90
26230;DHT22;13960;50.860;4.352;2022-10-31T04:17:18;16.80;99.90
26230;DHT22;13960;50.860;4.352;2022-10-31T04:19:45;16.80;99.90
26230;DHT22;13960;50.860;4.352;2022-10-31T04:22:10;16.80;99.90
26230;DHT22;13960;50.860;4.352;2022-10-31T04:24:37;16.80;99.90
26230;DHT22;13960;50.860;4.352;2022-10-31T04:27:03;16.70;99.90
26230;DHT22;13960;50.860;4.352;2022-10-31T04:29:29;16.70;99.90
26230;DHT22;13960;50.860;4.352;2022-10-31T04:31:54;16.60;99.90
26230;DHT22;13960;50.860;4.352;2022-10-31T04:34:20;16.10;99.90
26230;DHT22;13960;50.860;4.352;2022-10-31T04:36:45;16.10;99.90
26230;DHT22;13960;50.860;4.352;2022-10-31T04:39:11;16.10;99.90
26230;DHT22;13960;50.860;4.352;2022-10-31T04:41:36;16.10;99.90
26230;DHT22;13960;50.860;4.352;2022-10-31T04:44:02;16.10;99.90
26230;DHT22;13960;50.860;4.352;2022-10-31T04:46:27;16.00;99.90
26230;DHT22;13960;50.860;4.352;2022-10-31T04:48:53;16.00;99.90
26230;DHT22;13960;50.860;4.352;2022-10-31T04:51:18;16.10;99.90
26230;DHT22;13960;50.860;4.352;2022-10-31T04:53:44;16.20;99.90
26230;DHT22;13960;50.860;4.352;2022-10-31T04:56:09;16.40;99.90
26230;DHT22;13960;50.860;4.352;2022-10-31T04:58:35;16.40;99.90
26230;DHT22;13960;50.860;4.352;2022-10-31T05:01:00;16.40;99.90
26230;DHT22;13960;50.860;4.352;2022-10-31T05:03:26;16.60;99.90
26230;DHT22;13960;50.860;4.352;2022-10-31T05:05:51;16.60;99.90
26230;DHT22;13960;50.860;4.352;2022-10-31T05:08:17;16.50;99.90
26230;DHT22;13960;50.860;4.352;2022-10-31T05:10:42;16.50;99.90
26230;DHT22;13960;50.860;4.352;2022-10-31T05:13:08;16.60;99.90
26230;DHT22;13960;50.860;4.352;2022-10-31T05:15:34;16.60;99.90
26230;DHT22;13960;50.860;4.352;2022-10-31T05:17:59;16.80;99.90
26230;DHT22;13960;50.860;4.352;2022-10-31T05:20:26;16.80;99.90
26230;DHT22;13960;50.860;4.352;2022-10-31T05:22:52;16.20;99.90
26230;DHT22;13960;50.860;4.352;2022-10-31T05:25:19;16.10;99.90
26230;DHT22;13960;50.860;4.352;2022-10-31T05:27:45;16.20;99.90
26230;DHT22;13960;50.860;4.352;2022-10-31T05:30:12;16.40;99.90
26230;DHT22;13960;50.860;4.352;2022-10-31T05:32:41;16.40;99.90
26230;DHT22;13960;50.860;4.352;2022-10-31T05:35:08;16.30;99.90
26230;DHT22;13960;50.860;4.352;2022-10-31T05:37:36;16.40;99.90
26230;DHT22;13960;50.860;4.352;2022-10-31T05:40:03;16.50;99.90
26230;DHT22;13960;50.860;4.352;2022-10-31T05:42:29;16.50;99.90
26230;DHT22;13960;50.860;4.352;2022-10-31T05:44:54;16.30;99.90
26230;DHT22;13960;50.860;4.352;2022-10-31T05:47:20;16.10;99.90
26230;DHT22;13960;50.860;4.352;2022-10-31T05:49:46;16.20;99.90
26230;DHT22;13960;50.860;4.352;2022-10-31T05:52:11;16.20;99.90
26230;DHT22;13960;50.860;4.352;2022-10-31T05:54:37;16.20;99.90
26230;DHT22;13960;50.860;4.352;2022-10-31T05:57:02;16.20;99.90
26230;DHT22;13960;50.860;4.352;2022-10-31T05:59:28;16.00;99.90
26230;DHT22;13960;50.860;4.352;2022-10-31T06:01:53;15.60;99.90
26230;DHT22;13960;50.860;4.352;2022-10-31T06:04:19;15.20;99.90
26230;DHT22;13960;50.860;4.352;2022-10-31T06:06:44;15.10;99.90
26230;DHT22;13960;50.860;4.352;2022-10-31T06:09:10;15.10;99.90
26230;DHT22;13960;50.860;4.352;2022-10-31T06:11:36;15.00;99.90
26230;DHT22;13960;50.860;4.352;2022-10-31T06:14:01;15.00;99.90
26230;DHT22;13960;50.860;4.352;2022-10-31T06:16:27;15.00;99.90
26230;DHT22;13960;50.860;4.352;2022-10-31T06:18:53;15.00;99.90
26230;DHT22;13960;50.860;4.352;2022-10-31T06:21:18;15.00;99.90
26230;DHT22;13960;50.860;4.352;2022-10-31T06:23:44;15.20;99.90
26230;DHT22;13960;50.860;4.352;2022-10-31T06:26:10;15.00;99.90
26230;DHT22;13960;50.860;4.352;2022-10-31T06:28:35;14.90;99.90
26230;DHT22;13960;50.860;4.352;2022-10-31T06:31:01;15.00;99.90
26230;DHT22;13960;50.860;4.352;2022-10-31T06:33:26;15.20;99.90
26230;DHT22;13960;50.860;4.352;2022-10-31T06:35:52;15.40;99.90
26230;DHT22;13960;50.860;4.352;2022-10-31T06:38:17;15.20;99.90
26230;DHT22;13960;50.860;4.352;2022-10-31T06:40:43;15.10;99.90
26230;DHT22;13960;50.860;4.352;2022-10-31T06:43:08;15.20;99.90
26230;DHT22;13960;50.860;4.352;2022-10-31T06:45:36;15.40;99.90
26230;DHT22;13960;50.860;4.352;2022-10-31T06:48:02;15.60;99.90
26230;DHT22;13960;50.860;4.352;2022-10-31T06:50:28;15.20;99.90
26230;DHT22;13960;50.860;4.352;2022-10-31T06:52:54;15.40;99.90
26230;DHT22;13960;50.860;4.352;2022-10-31T06:55:20;15.70;99.90
26230;DHT22;13960;50.860;4.352;2022-10-31T06:58:00;15.70;99.90
26230;DHT22;13960;50.860;4.352;2022-10-31T07:00:26;15.60;99.90
26230;DHT22;13960;50.860;4.352;2022-10-31T07:02:54;15.40;99.90
26230;DHT22;13960;50.860;4.352;2022-10-31T07:05:20;15.40;99.90
26230;DHT22;13960;50.860;4.352;2022-10-31T07:07:46;15.30;99.90
26230;DHT22;13960;50.860;4.352;2022-10-31T07:10:13;15.10;99.90
26230;DHT22;13960;50.860;4.352;2022-10-31T07:12:38;15.10;99.90
26230;DHT22;13960;50.860;4.352;2022-10-31T07:15:04;15.20;99.90
26230;DHT22;13960;50.860;4.352;2022-10-31T07:17:31;15.60;99.90
26230;DHT22;13960;50.860;4.352;2022-10-31T07:19:57;15.80;99.90
26230;DHT22;13960;50.860;4.352;2022-10-31T07:22:22;16.10;99.90
26230;DHT22;13960;50.860;4.352;2022-10-31T07:24:48;16.10;99.90
26230;DHT22;13960;50.860;4.352;2022-10-31T07:27:13;16.10;99.90
26230;DHT22;13960;50.860;4.352;2022-10-31T07:29:39;16.20;99.90
26230;DHT22;13960;50.860;4.352;2022-10-31T07:32:04;16.30;99.90
26230;DHT22;13960;50.860;4.352;2022-10-31T07:34:30;16.30;99.90
26230;DHT22;13960;50.860;4.352;2022-10-31T07:36:55;16.00;99.90
26230;DHT22;13960;50.860;4.352;2022-10-31T07:39:21;15.80;99.90
26230;DHT22;13960;50.860;4.352;2022-10-31T07:41:46;15.70;99.90
26230;DHT22;13960;50.860;4.352;2022-10-31T07:44:12;15.60;99.90
26230;DHT22;13960;50.860;4.352;2022-10-31T07:46:37;15.40;99.90
26230;DHT22;13960;50.860;4.352;2022-10-31T07:49:03;15.50;99.90
26230;DHT22;13960;50.860;4.352;2022-10-31T07:51:28;15.40;99.90
26230;DHT22;13960;50.860;4.352;2022-10-31T07:53:54;15.50;99.90
26230;DHT22;13960;50.860;4.352;2022-10-31T07:56:19;15.50;99.90
26230;DHT22;13960;50.860;4.352;2022-10-31T07:58:45;15.60;99.90
26230;DHT22;13960;50.860;4.352;2022-10-31T08:01:11;15.60;99.90
26230;DHT22;13960;50.860;4.352;2022-10-31T08:03:36;16.00;99.90
26230;DHT22;13960;50.860;4.352;2022-10-31T08:06:03;16.20;99.90
26230;DHT22;13960;50.860;4.352;2022-10-31T08:08:31;16.50;99.90
26230;DHT22;13960;50.860;4.352;2022-10-31T08:11:00;16.80;99.90
26230;DHT22;13960;50.860;4.352;2022-10-31T08:13:25;16.80;99.90
26230;DHT22;13960;50.860;4.352;2022-10-31T08:15:51;17.00;99.90
26230;DHT22;13960;50.860;4.352;2022-10-31T08:18:18;16.60;99.90
26230;DHT22;13960;50.860;4.352;2022-10-31T08:20:44;16.70;99.90
26230;DHT22;13960;50.860;4.352;2022-10-31T08:23:10;16.40;99.90
26230;DHT22;13960;50.860;4.352;2022-10-31T08:25:36;16.20;99.90
26230;DHT22;13960;50.860;4.352;2022-10-31T08:28:02;16.10;99.90
26230;DHT22;13960;50.860;4.352;2022-10-31T08:30:29;16.30;99.90
26230;DHT22;13960;50.860;4.352;2022-10-31T08:32:59;16.70;99.90
26230;DHT22;13960;50.860;4.352;2022-10-31T08:35:25;17.00;99.90
26230;DHT22;13960;50.860;4.352;2022-10-31T08:37:54;17.30;99.90
26230;DHT22;13960;50.860;4.352;2022-10-31T08:40:20;17.20;99.90
26230;DHT22;13960;50.860;4.352;2022-10-31T08:42:46;17.20;99.90
26230;DHT22;13960;50.860;4.352;2022-10-31T08:45:12;16.80;99.90
26230;DHT22;13960;50.860;4.352;2022-10-31T08:47:37;16.20;99.90
26230;DHT22;13960;50.860;4.352;2022-10-31T08:50:03;15.70;99.90
26230;DHT22;13960;50.860;4.352;2022-10-31T08:52:29;15.50;99.90
26230;DHT22;13960;50.860;4.352;2022-10-31T08:54:54;15.60;99.90
26230;DHT22;13960;50.860;4.352;2022-10-31T08:57:20;15.70;99.90
26230;DHT22;13960;50.860;4.352;2022-10-31T08:59:45;15.70;99.90
26230;DHT22;13960;50.860;4.352;2022-10-31T09:02:11;15.90;99.90
26230;DHT22;13960;50.860;4.352;2022-10-31T09:04:36;16.00;99.90
26230;DHT22;13960;50.860;4.352;2022-10-31T09:07:02;16.10;99.90
26230;DHT22;13960;50.860;4.352;2022-10-31T09:09:27;16.20;99.90
26230;DHT22;13960;50.860;4.352;2022-10-31T09:11:53;16.10;99.90
26230;DHT22;13960;50.860;4.352;2022-10-31T09:14:18;16.30;99.90
26230;DHT22;13960;50.860;4.352;2022-10-31T09:16:44;16.40;99.90
26230;DHT22;13960;50.860;4.352;2022-10-31T09:19:09;16.50;99.90
26230;DHT22;13960;50.860;4.352;2022-10-31T09:21:35;16.50;99.90
26230;DHT22;13960;50.860;4.352;2022-10-31T09:24:00;16.50;99.90
26230;DHT22;13960;50.860;4.352;2022-10-31T09:26:26;16.60;99.90
26230;DHT22;13960;50.860;4.352;2022-10-31T09:28:51;16.70;99.90
26230;DHT22;13960;50.860;4.352;2022-10-31T09:31:17;16.60;99.90
26230;DHT22;13960;50.860;4.352;2022-10-31T09:33:42;16.80;99.90
26230;DHT22;13960;50.860;4.352;2022-10-31T09:36:09;16.90;99.90
26230;DHT22;13960;50.860;4.352;2022-10-31T09:38:35;17.10;99.90
26230;DHT22;13960;50.860;4.352;2022-10-31T09:43:50;17.40;99.90
26230;DHT22;13960;50.860;4.352;2022-10-31T09:51:28;17.20;99.90
26230;DHT22;13960;50.860;4.352;2022-10-31T09:53:59;17.30;99.90
26230;DHT22;13960;50.860;4.352;2022-10-31T09:56:26;17.20;99.90
26230;DHT22;13960;50.860;4.352;2022-10-31T09:58:56;17.20;99.90
26230;DHT22;13960;50.860;4.352;2022-10-31T10:01:43;17.30;99.90
26230;DHT22;13960;50.860;4.352;2022-10-31T10:04:21;17.50;99.90
26230;DHT22;13960;50.860;4.352;2022-10-31T10:06:50;18.00;99.90
26230;DHT22;13960;50.860;4.352;2022-10-31T10:09:16;18.00;99.90
26230;DHT22;13960;50.860;4.352;2022-10-31T10:17:11;18.10;99.90
26230;DHT22;13960;50.860;4.352;2022-10-31T10:19:41;17.70;99.90
26230;DHT22;13960;50.860;4.352;2022-10-31T10:22:12;17.20;99.90
26230;DHT22;13960;50.860;4.352;2022-10-31T10:30:16;16.90;99.90
26230;DHT22;13960;50.860;4.352;2022-10-31T10:35:33;16.90;99.90
26230;DHT22;13960;50.860;4.352;2022-10-31T10:40:35;17.50;99.90
26230;DHT22;13960;50.860;4.352;2022-10-31T10:45:50;18.30;99.90
26230;DHT22;13960;50.860;4.352;2022-10-31T10:48:40;17.90;99.90
26230;DHT22;13960;50.860;4.352;2022-10-31T10:51:07;17.60;99.90
26230;DHT22;13960;50.860;4.352;2022-10-31T10:53:40;17.50;99.90
26230;DHT22;13960;50.860;4.352;2022-10-31T10:59:07;17.10;99.90
26230;DHT22;13960;50.860;4.352;2022-10-31T11:01:33;17.10;99.90
26230;DHT22;13960;50.860;4.352;2022-10-31T11:03:59;17.20;99.90
26230;DHT22;13960;50.860;4.352;2022-10-31T11:06:26;17.20;99.90
26230;DHT22;13960;50.860;4.352;2022-10-31T11:08:53;17.40;99.90
26230;DHT22;13960;50.860;4.352;2022-10-31T11:11:31;17.40;99.90
26230;DHT22;13960;50.860;4.352;2022-10-31T11:13:59;17.60;99.90
26230;DHT22;13960;50.860;4.352;2022-10-31T11:18:51;18.10;99.90
26230;DHT22;13960;50.860;4.352;2022-10-31T11:21:30;18.40;99.90
26230;DHT22;13960;50.860;4.352;2022-10-31T11:26:33;18.60;99.90
26230;DHT22;13960;50.860;4.352;2022-10-31T11:29:00;18.70;99.90
26230;DHT22;13960;50.860;4.352;2022-10-31T11:31:27;18.40;99.90
26230;DHT22;13960;50.860;4.352;2022-10-31T11:33:57;18.00;99.90
26230;DHT22;13960;50.860;4.352;2022-10-31T11:36:25;18.10;99.90
26230;DHT22;13960;50.860;4.352;2022-10-31T11:38:51;18.40;99.90
26230;DHT22;13960;50.860;4.352;2022-10-31T11:41:17;18.40;99.90
26230;DHT22;13960;50.860;4.352;2022-10-31T11:43:54;18.30;99.90
26230;DHT22;13960;50.860;4.352;2022-10-31T11:46:34;18.30;99.90
26230;DHT22;13960;50.860;4.352;2022-10-31T11:49:00;18.10;99.90
26230;DHT22;13960;50.860;4.352;2022-10-31T11:51:28;18.20;99.90
26230;DHT22;13960;50.860;4.352;2022-10-31T11:53:56;18.30;99.90
26230;DHT22;13960;50.860;4.352;2022-10-31T11:56:22;18.40;99.90
26230;DHT22;13960;50.860;4.352;2022-10-31T12:01:45;18.50;99.90
26230;DHT22;13960;50.860;4.352;2022-10-31T12:04:12;18.50;99.90
26230;DHT22;13960;50.860;4.352;2022-10-31T12:06:38;18.70;99.90
26230;DHT22;13960;50.860;4.352;2022-10-31T12:09:49;18.90;99.90
26230;DHT22;13960;50.860;4.352;2022-10-31T12:22:14;19.60;99.90
26230;DHT22;13960;50.860;4.352;2022-10-31T12:27:18;19.30;99.90
26230;DHT22;13960;50.860;4.352;2022-10-31T12:32:32;19.30;99.90
26230;DHT22;13960;50.860;4.352;2022-10-31T12:52:44;19.20;99.90
26230;DHT22;13960;50.860;4.352;2022-10-31T12:55:58;19.50;99.90
26230;DHT22;13960;50.860;4.352;2022-10-31T13:00:42;19.90;99.90
26230;DHT22;13960;50.860;4.352;2022-10-31T13:05:48;20.90;99.90
26230;DHT22;13960;50.860;4.352;2022-10-31T13:10:45;20.80;99.90
26230;DHT22;13960;50.860;4.352;2022-10-31T13:13:13;20.70;99.90
26230;DHT22;13960;50.860;4.352;2022-10-31T13:15:50;20.10;99.90
26230;DHT22;13960;50.860;4.352;2022-10-31T13:18:21;20.00;99.90
26230;DHT22;13960;50.860;4.352;2022-10-31T13:20:48;19.70;99.90
26230;DHT22;13960;50.860;4.352;2022-10-31T13:25:47;20.30;99.90
26230;DHT22;13960;50.860;4.352;2022-10-31T13:28:23;20.50;99.90
26230;DHT22;13960;50.860;4.352;2022-10-31T13:30:50;20.60;99.90
26230;DHT22;13960;50.860;4.352;2022-10-31T13:33:21;20.90;99.90
26230;DHT22;13960;50.860;4.352;2022-10-31T13:35:52;20.60;99.90
26230;DHT22;13960;50.860;4.352;2022-10-31T13:38:24;20.50;99.90
26230;DHT22;13960;50.860;4.352;2022-10-31T13:41:04;20.50;99.90
26230;DHT22;13960;50.860;4.352;2022-10-31T13:43:33;20.40;99.90
26230;DHT22;13960;50.860;4.352;2022-10-31T13:46:01;20.60;99.90
26230;DHT22;13960;50.860;4.352;2022-10-31T13:50:56;22.50;99.90
26230;DHT22;13960;50.860;4.352;2022-10-31T13:53:22;24.70;99.90
26230;DHT22;13960;50.860;4.352;2022-10-31T13:58:32;26.20;99.90
26230;DHT22;13960;50.860;4.352;2022-10-31T14:00:59;26.00;99.90
26230;DHT22;13960;50.860;4.352;2022-10-31T14:03:24;27.10;99.90
26230;DHT22;13960;50.860;4.352;2022-10-31T14:05:53;25.80;99.90
26230;DHT22;13960;50.860;4.352;2022-10-31T14:08:19;26.90;99.90
26230;DHT22;13960;50.860;4.352;2022-10-31T14:10:49;27.30;99.90
26230;DHT22;13960;50.860;4.352;2022-10-31T14:13:20;28.70;99.90
26230;DHT22;13960;50.860;4.352;2022-10-31T14:16:32;27.90;99.90
26230;DHT22;13960;50.860;4.352;2022-10-31T14:18:36;28.00;99.90
26230;DHT22;13960;50.860;4.352;2022-10-31T14:23:40;29.30;99.90
26230;DHT22;13960;50.860;4.352;2022-10-31T14:28:46;30.10;99.90
26230;DHT22;13960;50.860;4.352;2022-10-31T14:33:58;27.40;99.90
26230;DHT22;13960;50.860;4.352;2022-10-31T14:36:31;26.90;99.90
26230;DHT22;13960;50.860;4.352;2022-10-31T14:39:02;27.00;99.90
26230;DHT22;13960;50.860;4.352;2022-10-31T14:44:16;27.40;99.90
26230;DHT22;13960;50.860;4.352;2022-10-31T14:49:56;26.70;99.90
26230;DHT22;13960;50.860;4.352;2022-10-31T14:52:24;25.20;99.90
26230;DHT22;13960;50.860;4.352;2022-10-31T14:54:51;24.30;99.90
26230;DHT22;13960;50.860;4.352;2022-10-31T14:57:31;24.30;99.90
26230;DHT22;13960;50.860;4.352;2022-10-31T14:59:59;23.70;99.90
26230;DHT22;13960;50.860;4.352;2022-10-31T15:02:46;24.00;99.90
26230;DHT22;13960;50.860;4.352;2022-10-31T15:05:14;23.90;99.90
26230;DHT22;13960;50.860;4.352;2022-10-31T15:07:52;24.10;99.90
26230;DHT22;13960;50.860;4.352;2022-10-31T15:10:22;24.50;99.90
26230;DHT22;13960;50.860;4.352;2022-10-31T15:12:48;23.80;99.90
26230;DHT22;13960;50.860;4.352;2022-10-31T15:15:14;22.90;99.90
26230;DHT22;13960;50.860;4.352;2022-10-31T15:17:45;22.20;99.90
26230;DHT22;13960;50.860;4.352;2022-10-31T15:20:21;21.50;99.90
26230;DHT22;13960;50.860;4.352;2022-10-31T15:22:51;21.10;99.90
26230;DHT22;13960;50.860;4.352;2022-10-31T15:25:21;20.80;99.90
26230;DHT22;13960;50.860;4.352;2022-10-31T15:27:47;20.60;99.90
26230;DHT22;13960;50.860;4.352;2022-10-31T15:30:16;20.50;99.90
26230;DHT22;13960;50.860;4.352;2022-10-31T15:32:43;20.50;99.90
26230;DHT22;13960;50.860;4.352;2022-10-31T15:35:09;20.50;99.90
26230;DHT22;13960;50.860;4.352;2022-10-31T15:37:34;20.60;99.90
26230;DHT22;13960;50.860;4.352;2022-10-31T15:40:06;20.60;99.90
26230;DHT22;13960;50.860;4.352;2022-10-31T15:42:35;20.30;99.90
26230;DHT22;13960;50.860;4.352;2022-10-31T15:47:39;20.20;99.90
26230;DHT22;13960;50.860;4.352;2022-10-31T15:50:20;20.20;99.90
26230;DHT22;13960;50.860;4.352;2022-10-31T15:52:48;20.10;99.90
26230;DHT22;13960;50.860;4.352;2022-10-31T15:55:16;20.20;99.90
26230;DHT22;13960;50.860;4.352;2022-10-31T15:57:44;20.00;99.90
26230;DHT22;13960;50.860;4.352;2022-10-31T16:02:48;19.70;99.90
26230;DHT22;13960;50.860;4.352;2022-10-31T16:05:14;19.70;99.90
26230;DHT22;13960;50.860;4.352;2022-10-31T16:07:47;19.70;99.90
26230;DHT22;13960;50.860;4.352;2022-10-31T16:10:22;19.30;99.90
26230;DHT22;13960;50.860;4.352;2022-10-31T16:12:49;19.30;99.90
26230;DHT22;13960;50.860;4.352;2022-10-31T16:15:15;19.30;99.90
26230;DHT22;13960;50.860;4.352;2022-10-31T16:17:42;19.00;99.90
26230;DHT22;13960;50.860;4.352;2022-10-31T16:20:16;18.80;99.90
26230;DHT22;13960;50.860;4.352;2022-10-31T16:22:46;18.70;99.90
26230;DHT22;13960;50.860;4.352;2022-10-31T16:25:17;18.70;99.90
26230;DHT22;13960;50.860;4.352;2022-10-31T16:27:47;19.00;99.90
26230;DHT22;13960;50.860;4.352;2022-10-31T16:32:58;19.20;99.90
26230;DHT22;13960;50.860;4.352;2022-10-31T16:35:34;19.10;99.90
26230;DHT22;13960;50.860;4.352;2022-10-31T16:38:00;18.90;99.90
26230;DHT22;13960;50.860;4.352;2022-10-31T16:40:26;18.70;99.90
26230;DHT22;13960;50.860;4.352;2022-10-31T16:42:51;18.60;99.90
26230;DHT22;13960;50.860;4.352;2022-10-31T16:45:21;18.70;99.90
26230;DHT22;13960;50.860;4.352;2022-10-31T16:47:47;18.70;99.90
26230;DHT22;13960;50.860;4.352;2022-10-31T16:50:26;18.60;99.90
26230;DHT22;13960;50.860;4.352;2022-10-31T16:52:52;18.40;99.90
26230;DHT22;13960;50.860;4.352;2022-10-31T16:55:18;18.30;99.90
26230;DHT22;13960;50.860;4.352;2022-10-31T16:57:46;18.40;99.90
26230;DHT22;13960;50.860;4.352;2022-10-31T17:00:16;18.40;99.90
26230;DHT22;13960;50.860;4.352;2022-10-31T17:02:43;18.30;99.90
26230;DHT22;13960;50.860;4.352;2022-10-31T17:05:11;18.20;99.90
26230;DHT22;13960;50.860;4.352;2022-10-31T17:07:37;18.10;99.90
26230;DHT22;13960;50.860;4.352;2022-10-31T17:10:03;18.10;99.90
26230;DHT22;13960;50.860;4.352;2022-10-31T17:12:28;18.10;99.90
26230;DHT22;13960;50.860;4.352;2022-10-31T17:14:54;18.00;99.90
26230;DHT22;13960;50.860;4.352;2022-10-31T17:17:20;18.00;99.90
26230;DHT22;13960;50.860;4.352;2022-10-31T17:19:45;18.00;99.90
26230;DHT22;13960;50.860;4.352;2022-10-31T17:22:11;18.00;99.90
26230;DHT22;13960;50.860;4.352;2022-10-31T17:24:36;18.10;99.90
26230;DHT22;13960;50.860;4.352;2022-10-31T17:27:05;18.10;99.90
26230;DHT22;13960;50.860;4.352;2022-10-31T17:29:30;18.00;99.90
26230;DHT22;13960;50.860;4.352;2022-10-31T17:31:57;17.90;99.90
26230;DHT22;13960;50.860;4.352;2022-10-31T17:34:22;18.00;99.90
26230;DHT22;13960;50.860;4.352;2022-10-31T17:36:48;18.00;99.90
26230;DHT22;13960;50.860;4.352;2022-10-31T17:39:14;18.00;99.90
26230;DHT22;13960;50.860;4.352;2022-10-31T17:41:40;17.90;99.90
26230;DHT22;13960;50.860;4.352;2022-10-31T17:44:05;18.00;99.90
26230;DHT22;13960;50.860;4.352;2022-10-31T17:46:31;18.00;99.90
26230;DHT22;13960;50.860;4.352;2022-10-31T17:48:57;18.10;99.90
26230;DHT22;13960;50.860;4.352;2022-10-31T17:51:25;18.10;99.90